Time;durP1;ratioP1;P1;durP2;ratioP2;P2;SDS_P1;SDS_P2;PMS_P1;PMS_P2;Temp;Humidity;BMP_temperature;BMP_pressure;BME280_temperature;BME280_humidity;BME280_pressure;Samples;Min_cycle;Max_cycle;Signal;HPM_P1;HPM_P2
2022/12/15 00:39:09;;;;;;;38.03;18.20;;;-2.80;1.00;;;;;;4878508;29;20194;-87
2022/12/15 00:41:35;;;;;;;35.90;18.77;;;-2.80;1.00;;;;;;4876394;29;20282;-86
2022/12/15 00:44:00;;;;;;;35.27;18.73;;;-2.70;1.00;;;;;;4878583;29;20242;-87
2022/12/15 00:50:50;;;;;;;34.30;17.70;;;-2.70;1.00;;;;;;4877922;29;20206;-86
2022/12/15 01:22:01;;;;;;;28.35;17.45;;;-2.90;1.00;;;;;;4878331;29;20202;-87
2022/12/15 01:24:27;;;;;;;33.70;19.23;;;-2.90;1.00;;;;;;4878114;29;20184;-86
2022/12/15 01:26:52;;;;;;;39.23;18.63;;;-3.00;1.00;;;;;;4874693;29;20212;-87
2022/12/15 01:29:18;;;;;;;33.60;20.70;;;-3.00;1.00;;;;;;4877337;29;20188;-86
2022/12/15 01:31:43;;;;;;;36.10;19.40;;;-3.00;1.00;;;;;;4875751;29;20187;-87
2022/12/15 01:34:09;;;;;;;39.97;20.43;;;-3.10;1.00;;;;;;4878632;29;20218;-86
2022/12/15 01:36:34;;;;;;;44.53;20.90;;;-3.10;1.00;;;;;;4876780;29;20211;-87
2022/12/15 01:39:00;;;;;;;35.93;19.23;;;-3.00;1.00;;;;;;4878183;29;20191;-87
2022/12/15 01:41:26;;;;;;;32.22;17.48;;;-3.00;1.00;;;;;;4875101;29;20188;-87
2022/12/15 01:43:52;;;;;;;36.22;18.83;;;-3.00;1.00;;;;;;4877708;29;20202;-87
2022/12/15 01:46:20;;;;;;;37.47;21.73;;;-3.00;1.00;;;;;;4877644;29;20212;-86
2022/12/15 01:49:06;;;;;;;36.58;19.73;;;-3.00;1.00;;;;;;4891647;29;20556;-86
2022/12/15 01:51:39;;;;;;;36.72;19.92;;;-3.00;1.00;;;;;;4874173;29;20210;-87
2022/12/15 01:54:10;;;;;;;37.47;20.42;;;-3.10;1.00;;;;;;4878132;29;20692;-86
2022/12/15 01:56:46;;;;;;;33.55;20.27;;;-3.10;1.00;;;;;;4879249;29;20705;-86
2022/12/15 01:59:19;;;;;;;39.80;19.77;;;-3.10;1.00;;;;;;4875869;29;20222;-87
2022/12/15 02:01:45;;;;;;;38.42;19.00;;;-3.10;1.00;;;;;;4876553;29;20195;-86
2022/12/15 02:04:11;;;;;;;35.27;20.00;;;-3.10;1.00;;;;;;4876248;29;20191;-87
2022/12/15 02:06:37;;;;;;;39.55;19.13;;;-3.20;1.00;;;;;;4879075;29;20466;-87
2022/12/15 02:09:03;;;;;;;31.60;18.63;;;-3.20;1.00;;;;;;4877637;29;20270;-86
2022/12/15 02:11:43;;;;;;;32.08;18.92;;;-3.20;1.00;;;;;;4876728;29;20184;-87
2022/12/15 02:14:11;;;;;;;34.88;19.38;;;-3.30;1.00;;;;;;4874157;29;20188;-86
2022/12/15 02:17:00;;;;;;;34.88;19.67;;;-3.30;1.00;;;;;;4876491;29;20214;-86
2022/12/15 02:19:38;;;;;;;34.05;19.67;;;-3.40;1.00;;;;;;4870020;29;20191;-87
2022/12/15 02:22:28;;;;;;;36.72;18.60;;;-3.40;1.00;;;;;;4878254;29;20200;-87
2022/12/15 02:25:21;;;;;;;32.53;18.60;;;-3.40;1.00;;;;;;4873112;29;20183;-86
2022/12/15 02:27:55;;;;;;;34.30;19.00;;;-3.40;1.00;;;;;;4876226;29;20208;-85
2022/12/15 02:30:45;;;;;;;37.15;19.90;;;-3.50;1.00;;;;;;4877370;29;20187;-88
2022/12/15 02:33:26;;;;;;;35.30;20.05;;;-3.50;1.00;;;;;;4874388;29;20243;-86
2022/12/15 02:36:09;;;;;;;42.42;19.45;;;-3.50;1.00;;;;;;4877392;29;20234;-87
2022/12/15 02:38:38;;;;;;;32.22;19.23;;;-3.60;1.00;;;;;;4875460;29;20672;-89
2022/12/15 02:41:05;;;;;;;37.03;20.08;;;-3.60;1.00;;;;;;4877759;29;20263;-87
2022/12/15 02:43:35;;;;;;;30.55;18.02;;;-3.60;1.00;;;;;;4876215;29;20200;-87
2022/12/15 02:46:13;;;;;;;36.97;18.70;;;-3.70;1.00;;;;;;4878221;29;20318;-86
2022/12/15 02:48:49;;;;;;;29.63;19.20;;;-3.70;1.00;;;;;;4869899;29;20192;-87
2022/12/15 02:51:31;;;;;;;31.88;19.90;;;-3.70;1.00;;;;;;4872921;29;20671;-87
2022/12/15 02:54:31;;;;;;;37.97;19.65;;;-3.70;1.00;;;;;;4875740;29;20191;-87
2022/12/15 02:57:42;;;;;;;36.35;18.40;;;-3.70;1.00;;;;;;4876489;29;20271;-88
2022/12/15 03:00:10;;;;;;;34.20;19.73;;;-3.80;1.00;;;;;;4863502;29;20219;-86
2022/12/15 03:02:41;;;;;;;36.80;17.75;;;-3.80;1.00;;;;;;4859315;29;20220;-86
2022/12/15 03:05:08;;;;;;;38.53;20.83;;;-3.80;1.00;;;;;;4875821;29;20190;-88
2022/12/15 03:07:34;;;;;;;41.78;21.08;;;-3.80;1.00;;;;;;4876103;29;20207;-87
2022/12/15 03:10:02;;;;;;;38.23;18.57;;;-3.80;1.00;;;;;;4876451;29;20228;-89
2022/12/15 03:12:27;;;;;;;33.42;19.42;;;-3.80;1.00;;;;;;4890802;29;20199;-86
2022/12/15 03:14:53;;;;;;;41.23;21.17;;;-3.80;1.00;;;;;;4876908;29;20219;-87
2022/12/15 03:17:19;;;;;;;36.97;18.93;;;-3.80;1.00;;;;;;4876407;29;20211;-86
2022/12/15 03:19:44;;;;;;;32.17;19.00;;;-3.90;1.00;;;;;;4876256;29;20200;-87
2022/12/15 03:22:10;;;;;;;42.90;20.80;;;-3.90;1.00;;;;;;4874245;29;20855;-86
2022/12/15 03:24:36;;;;;;;32.17;18.87;;;-3.90;1.00;;;;;;4876808;29;20187;-87
2022/12/15 03:27:01;;;;;;;37.63;18.07;;;-3.80;1.00;;;;;;4876327;29;20199;-87
2022/12/15 03:29:27;;;;;;;30.57;18.40;;;-3.80;1.00;;;;;;4877302;29;20223;-86
2022/12/15 03:31:52;;;;;;;30.70;16.73;;;-3.80;1.00;;;;;;4874735;29;20219;-87
2022/12/15 03:34:18;;;;;;;26.07;16.27;;;-3.80;1.00;;;;;;4876156;29;20191;-87
2022/12/15 03:36:43;;;;;;;36.20;18.00;;;-3.80;1.00;;;;;;4877582;29;20215;-86
2022/12/15 03:39:09;;;;;;;35.57;18.27;;;-3.80;1.00;;;;;;4876265;29;20682;-86
2022/12/15 03:41:34;;;;;;;31.93;18.73;;;-3.80;1.00;;;;;;4878417;29;20324;-87
2022/12/15 03:44:00;;;;;;;37.63;19.00;;;-3.80;1.00;;;;;;4876812;29;20203;-87
2022/12/15 03:46:26;;;;;;;41.03;18.00;;;-3.80;1.00;;;;;;4878085;29;20226;-86
2022/12/15 03:48:52;;;;;;;38.70;19.45;;;-3.80;1.00;;;;;;4877520;29;20188;-87
2022/12/15 03:51:19;;;;;;;34.22;18.50;;;-3.90;1.00;;;;;;4878840;29;20190;-86
2022/12/15 03:53:46;;;;;;;35.83;17.02;;;-3.90;1.00;;;;;;4897025;29;20274;-88
2022/12/15 03:56:12;;;;;;;34.80;18.13;;;-3.90;1.00;;;;;;4891633;29;20211;-88
2022/12/15 03:58:38;;;;;;;36.37;17.90;;;-3.90;1.00;;;;;;4889087;29;20234;-88
2022/12/15 04:01:11;;;;;;;32.03;16.60;;;-3.90;13.70;;;;;;4877071;29;20440;-86
2022/12/15 04:03:39;;;;;;;33.15;16.15;;;-3.90;13.50;;;;;;4876425;29;20205;-87
2022/12/15 04:06:05;;;;;;;32.80;18.50;;;-3.80;1.00;;;;;;4891835;29;20219;-87
2022/12/15 04:08:31;;;;;;;31.20;16.87;;;-3.90;1.00;;;;;;4876850;29;20543;-87
2022/12/15 04:10:56;;;;;;;41.07;17.33;;;-3.90;1.00;;;;;;4874716;29;20498;-86
2022/12/15 04:13:22;;;;;;;33.77;15.57;;;-3.90;2.00;;;;;;4876744;29;20196;-87
2022/12/15 04:15:47;;;;;;;36.43;17.53;;;-3.80;1.00;;;;;;4875190;29;20230;-86
2022/12/15 04:18:13;;;;;;;25.63;15.67;;;-3.80;1.00;;;;;;4877914;29;20188;-87
2022/12/15 04:20:39;;;;;;;31.87;17.30;;;-3.80;1.00;;;;;;4879989;29;20845;-86
2022/12/15 04:23:08;;;;;;;27.77;15.95;;;-3.80;1.00;;;;;;4879040;29;20197;-87
2022/12/15 05:31:57;;;;;;;36.13;18.45;;;-4.00;69.50;;;;;;4873393;29;20195;-87
2022/12/15 05:34:33;;;;;;;44.67;20.23;;;-4.00;82.00;;;;;;4876187;29;20202;-87
2022/12/15 05:37:01;;;;;;;32.45;17.55;;;-4.00;89.00;;;;;;4873289;29;20204;-86
2022/12/15 05:39:27;;;;;;;30.50;18.48;;;-4.00;91.50;;;;;;4877350;29;20199;-87
2022/12/15 05:41:53;;;;;;;34.43;18.93;;;-4.10;99.90;;;;;;4877779;29;20188;-87
2022/12/15 05:44:20;;;;;;;30.75;16.55;;;-4.10;94.40;;;;;;4878155;29;20436;-87
2022/12/15 05:46:46;;;;;;;47.30;20.35;;;-4.10;97.90;;;;;;4876965;29;20207;-87
2022/12/15 05:49:14;;;;;;;58.63;21.00;;;-4.10;99.90;;;;;;4880204;29;20192;-88
2022/12/15 05:51:41;;;;;;;41.47;17.55;;;-4.10;99.50;;;;;;4879549;29;20618;-86
2022/12/15 05:54:08;;;;;;;31.90;17.17;;;-4.10;99.90;;;;;;4878780;29;22029;-86
2022/12/15 05:56:34;;;;;;;36.53;18.00;;;-4.10;99.90;;;;;;4875826;29;20750;-87
2022/12/15 05:58:59;;;;;;;40.35;18.58;;;-4.10;99.90;;;;;;4878596;29;20196;-87
2022/12/15 06:01:26;;;;;;;33.03;19.07;;;-4.10;99.90;;;;;;4878378;29;20195;-88
2022/12/15 06:03:52;;;;;;;40.88;17.70;;;-4.10;99.90;;;;;;4878295;29;20183;-86
2022/12/15 06:06:18;;;;;;;34.35;16.65;;;-4.20;99.90;;;;;;4878735;29;20700;-86
2022/12/15 06:08:44;;;;;;;32.90;17.10;;;-4.20;99.90;;;;;;4877200;29;20199;-87
2022/12/15 06:11:14;;;;;;;31.27;18.37;;;-4.20;99.90;;;;;;4873623;29;20195;-86
2022/12/15 06:13:40;;;;;;;36.40;17.80;;;-4.20;99.90;;;;;;4875965;29;20235;-86
2022/12/15 06:16:12;;;;;;;39.30;17.67;;;-4.20;99.90;;;;;;4877097;29;20219;-86
2022/12/15 06:18:40;;;;;;;28.38;15.50;;;-4.20;99.90;;;;;;4877023;29;20622;-86
2022/12/15 06:21:11;;;;;;;27.65;15.82;;;-4.20;99.90;;;;;;4877914;29;20217;-86
2022/12/15 06:23:37;;;;;;;33.03;16.95;;;-4.20;99.90;;;;;;4878246;29;20204;-86
2022/12/15 06:26:16;;;;;;;34.67;17.88;;;-4.20;99.90;;;;;;4876203;29;20239;-86
2022/12/15 06:28:42;;;;;;;36.60;19.75;;;-4.20;99.90;;;;;;4874142;29;20202;-89
2022/12/15 06:31:09;;;;;;;41.90;20.90;;;-4.20;99.90;;;;;;4877370;29;20192;-86
2022/12/15 06:33:35;;;;;;;41.50;19.13;;;-4.20;99.90;;;;;;4876775;29;20210;-87
2022/12/15 06:36:07;;;;;;;38.42;20.35;;;-4.20;99.90;;;;;;4875877;29;20215;-86
2022/12/15 06:38:34;;;;;;;38.70;17.88;;;-4.20;99.90;;;;;;4877110;29;20195;-87
2022/12/15 06:41:00;;;;;;;36.58;19.20;;;-4.20;99.90;;;;;;4878042;29;20267;-86
2022/12/15 06:43:30;;;;;;;33.50;19.05;;;-4.20;99.90;;;;;;4869219;29;20199;-86
2022/12/15 06:45:56;;;;;;;44.75;19.10;;;-4.20;99.90;;;;;;4879817;29;20235;-86
2022/12/15 06:48:22;;;;;;;38.80;18.83;;;-4.20;99.90;;;;;;4881176;29;20176;-86
2022/12/15 06:50:48;;;;;;;39.17;18.63;;;-4.20;99.90;;;;;;4883134;29;20277;-87
2022/12/15 06:53:16;;;;;;;35.47;19.63;;;-4.20;99.90;;;;;;4881515;29;20211;-88
2022/12/15 06:55:42;;;;;;;33.88;18.70;;;-4.20;99.90;;;;;;4881728;29;20216;-86
2022/12/15 06:58:11;;;;;;;32.10;18.20;;;-4.20;99.90;;;;;;4881458;29;20192;-87
2022/12/15 07:00:37;;;;;;;39.35;18.63;;;-4.20;99.90;;;;;;4878750;29;20200;-87
2022/12/15 07:03:06;;;;;;;33.20;17.90;;;-4.30;99.90;;;;;;4881887;29;20552;-87
2022/12/15 07:05:32;;;;;;;28.92;17.92;;;-4.20;99.90;;;;;;4882226;29;20207;-87
2022/12/15 07:07:58;;;;;;;43.10;19.63;;;-4.20;99.90;;;;;;4881617;29;20191;-87
2022/12/15 07:10:23;;;;;;;39.50;17.50;;;-4.20;99.90;;;;;;4881163;29;20450;-86
2022/12/15 07:12:50;;;;;;;50.30;19.37;;;-4.20;99.90;;;;;;4881984;29;20192;-87
2022/12/15 07:15:15;;;;;;;39.88;18.83;;;-4.20;99.90;;;;;;4879753;29;20204;-87
2022/12/15 07:17:41;;;;;;;32.93;18.70;;;-4.20;99.90;;;;;;4878892;29;20265;-87
2022/12/15 07:20:07;;;;;;;34.17;17.30;;;-4.20;99.90;;;;;;4881144;29;20461;-86
2022/12/15 07:22:33;;;;;;;37.03;20.80;;;-4.20;99.90;;;;;;4878021;29;20747;-87
2022/12/15 07:24:58;;;;;;;35.37;17.80;;;-4.30;99.90;;;;;;4876586;29;20186;-88
2022/12/15 07:27:24;;;;;;;40.23;17.83;;;-4.20;99.90;;;;;;4883664;29;20231;-87
2022/12/15 07:29:50;;;;;;;45.30;18.63;;;-4.10;99.90;;;;;;4881718;29;20219;-87
2022/12/15 07:32:17;;;;;;;32.58;18.95;;;-4.00;99.90;;;;;;4881495;29;20184;-87
2022/12/15 07:34:42;;;;;;;32.93;18.50;;;-3.90;99.90;;;;;;4885575;29;20211;-89
2022/12/15 07:37:08;;;;;;;33.73;16.97;;;-3.90;99.90;;;;;;4893138;29;20500;-89
2022/12/15 07:39:33;;;;;;;31.47;19.10;;;-3.80;99.90;;;;;;4890032;29;20769;-87
2022/12/15 07:41:59;;;;;;;31.33;17.37;;;-3.70;99.90;;;;;;4880113;29;20183;-88
2022/12/15 07:44:25;;;;;;;33.30;19.50;;;-3.60;99.90;;;;;;4877849;29;20736;-86
2022/12/15 07:46:51;;;;;;;38.67;18.17;;;-3.50;99.90;;;;;;4877698;29;20226;-87
2022/12/15 07:49:17;;;;;;;34.17;16.00;;;-3.50;99.90;;;;;;4860170;29;20436;-87
2022/12/15 07:51:43;;;;;;;34.20;18.60;;;-3.40;99.90;;;;;;4870108;29;20426;-88
2022/12/15 07:57:10;;;;;;;45.47;20.23;;;-3.30;84.20;;;;;;4867630;29;20219;-88
2022/12/15 07:59:35;;;;;;;30.03;17.73;;;-3.20;31.30;;;;;;4877436;29;20607;-87
2022/12/15 08:02:03;;;;;;;33.03;19.50;;;-3.20;15.80;;;;;;4890925;29;20534;-87
2022/12/15 08:04:29;;;;;;;34.85;18.75;;;-3.10;1.00;;;;;;4889767;29;20190;-88
2022/12/15 08:06:55;;;;;;;38.92;21.40;;;-3.00;1.00;;;;;;4884232;29;20230;-87
2022/12/15 08:09:24;;;;;;;36.25;19.40;;;-3.00;1.00;;;;;;4875813;29;20210;-86
2022/12/15 08:11:50;;;;;;;31.55;17.75;;;-2.90;1.00;;;;;;4877208;29;20196;-88
2022/12/15 08:14:16;;;;;;;45.20;20.10;;;-2.80;1.00;;;;;;4877466;29;20918;-88
2022/12/15 08:16:42;;;;;;;37.50;18.48;;;-2.70;1.00;;;;;;4881129;29;20535;-87
2022/12/15 08:19:14;;;;;;;39.93;21.27;;;-2.60;1.00;;;;;;4879276;29;20623;-86
2022/12/15 08:21:40;;;;;;;45.35;22.33;;;-2.40;1.00;;;;;;4877290;29;20448;-87
2022/12/15 08:24:07;;;;;;;38.17;23.23;;;-2.10;1.00;;;;;;4876587;29;20198;-87
2022/12/15 08:26:33;;;;;;;41.28;20.05;;;-1.40;1.00;;;;;;4877758;29;20215;-87
2022/12/15 08:29:03;;;;;;;39.90;20.02;;;-0.70;1.00;;;;;;4877685;29;20192;-88
2022/12/15 08:31:31;;;;;;;41.13;20.85;;;-0.20;1.00;;;;;;4876201;29;20184;-87
2022/12/15 08:33:57;;;;;;;40.25;22.20;;;0.00;99.90;;;;;;4875134;29;20198;-87
2022/12/15 08:36:22;;;;;;;55.37;24.10;;;-0.10;99.90;;;;;;4876584;29;20695;-88
2022/12/15 08:38:48;;;;;;;35.73;20.40;;;-0.20;99.90;;;;;;4878514;29;20183;-87
2022/12/15 08:41:23;;;;;;;30.50;18.73;;;-0.20;99.90;;;;;;4874059;29;20187;-89
2022/12/15 08:43:50;;;;;;;32.83;17.30;;;-0.20;99.90;;;;;;4878629;29;20443;-87
2022/12/15 08:46:23;;;;;;;38.53;18.55;;;-0.20;99.90;;;;;;4877305;29;20231;-87
2022/12/15 08:48:51;;;;;;;36.47;19.20;;;-0.40;99.90;;;;;;4880110;29;20219;-88
2022/12/15 08:51:28;;;;;;;33.33;17.42;;;-0.50;99.90;;;;;;4877680;29;20683;-88
2022/12/15 08:53:55;;;;;;;28.52;17.10;;;-0.50;99.90;;;;;;4866660;29;20196;-88
2022/12/15 08:56:21;;;;;;;34.15;16.45;;;-0.40;99.90;;;;;;4878345;29;21257;-86
2022/12/15 08:58:49;;;;;;;28.45;16.00;;;-0.30;99.90;;;;;;4874857;29;20614;-88
2022/12/15 09:01:20;;;;;;;27.20;15.43;;;-0.30;99.90;;;;;;4884931;29;20230;-88
2022/12/15 09:03:56;;;;;;;31.88;18.02;;;-0.20;99.90;;;;;;4879477;29;20551;-87
2022/12/15 09:06:27;;;;;;;29.73;16.85;;;-0.20;99.90;;;;;;4869096;29;20215;-86
2022/12/15 09:08:58;;;;;;;26.90;15.75;;;-0.10;99.90;;;;;;4875248;29;20184;-87
2022/12/15 09:11:24;;;;;;;31.27;17.42;;;-0.10;99.90;;;;;;4878787;29;20187;-86
2022/12/15 09:13:50;;;;;;;33.53;17.10;;;0.00;99.90;;;;;;4880300;29;20243;-89
2022/12/15 09:16:53;;;;;;;31.30;17.20;;;0.00;99.90;;;;;;4877215;29;20843;-87
2022/12/15 09:19:24;;;;;;;31.42;17.88;;;0.00;99.90;;;;;;4867531;29;20203;-88
2022/12/15 09:21:50;;;;;;;28.95;17.23;;;0.10;99.90;;;;;;4878606;29;20187;-87
2022/12/15 09:24:18;;;;;;;33.20;17.43;;;0.10;99.90;;;;;;4878060;29;20577;-88
2022/12/15 09:27:04;;;;;;;29.75;17.52;;;0.20;99.90;;;;;;4878122;29;20300;-86
2022/12/15 09:29:30;;;;;;;26.98;16.20;;;0.20;99.90;;;;;;4878575;29;20199;-86
2022/12/15 09:31:58;;;;;;;33.03;17.00;;;0.30;99.90;;;;;;4877731;29;20199;-86
2022/12/15 09:34:24;;;;;;;38.92;18.27;;;0.40;99.90;;;;;;4879455;29;20181;-87
2022/12/15 09:36:49;;;;;;;34.47;17.70;;;0.40;99.90;;;;;;4880103;29;20207;-89
2022/12/15 09:39:15;;;;;;;37.53;18.40;;;0.40;99.90;;;;;;4876094;29;20259;-86
2022/12/15 09:41:53;;;;;;;30.48;19.08;;;0.40;99.90;;;;;;4880288;29;20251;-86
2022/12/15 09:44:21;;;;;;;39.10;17.70;;;0.40;99.90;;;;;;4871006;29;20558;-86
2022/12/15 09:47:16;;;;;;;31.95;17.27;;;0.50;99.90;;;;;;4877194;29;20290;-86
2022/12/15 09:49:57;;;;;;;26.67;15.90;;;0.60;99.90;;;;;;4875131;29;20192;-86
2022/12/15 09:52:45;;;;;;;31.48;16.48;;;0.70;99.90;;;;;;4878534;29;20179;-90
2022/12/15 09:55:31;;;;;;;39.50;18.02;;;0.80;99.90;;;;;;4876336;29;20307;-86
2022/12/15 09:58:19;;;;;;;30.92;18.08;;;0.80;99.90;;;;;;4872003;29;20708;-88
2022/12/15 10:01:03;;;;;;;35.70;16.65;;;0.90;99.90;;;;;;4870353;29;20206;-87
2022/12/15 10:03:38;;;;;;;28.85;16.55;;;0.90;99.90;;;;;;4873758;29;20731;-87
2022/12/15 10:06:17;;;;;;;26.63;14.85;;;0.80;99.90;;;;;;4875151;29;20211;-85
2022/12/15 10:08:56;;;;;;;30.48;15.75;;;0.80;99.90;;;;;;4876811;29;20192;-87
2022/12/15 10:11:53;;;;;;;30.25;20.20;;;0.80;99.90;;;;;;4872692;29;20271;-88
2022/12/15 10:14:38;;;;;;;29.67;16.60;;;0.80;99.90;;;;;;4879810;29;20557;-86
2022/12/15 10:17:35;;;;;;;26.20;16.13;;;0.70;99.90;;;;;;4879567;29;20220;-85
2022/12/15 10:20:16;;;;;;;25.48;16.33;;;0.70;99.90;;;;;;4878938;29;20188;-88
2022/12/15 10:22:42;;;;;;;22.88;14.60;;;0.60;99.90;;;;;;4878827;29;20190;-87
2022/12/15 10:25:20;;;;;;;33.43;16.10;;;0.60;99.90;;;;;;4879622;29;20188;-86
2022/12/15 10:28:20;;;;;;;30.08;15.85;;;0.60;99.90;;;;;;4877340;29;20500;-86
2022/12/15 10:30:51;;;;;;;25.60;15.15;;;0.60;99.90;;;;;;4873088;29;20218;-86
2022/12/15 10:33:24;;;;;;;28.58;15.63;;;0.70;99.90;;;;;;4869763;29;20328;-90
2022/12/15 10:35:52;;;;;;;29.63;16.83;;;0.80;99.90;;;;;;4870428;29;20211;-87
2022/12/15 10:38:31;;;;;;;32.90;18.95;;;0.90;99.90;;;;;;4876688;29;20191;-88
2022/12/15 10:41:03;;;;;;;33.83;18.20;;;0.90;99.90;;;;;;4877259;29;20190;-86
2022/12/15 10:43:35;;;;;;;33.65;19.40;;;1.00;99.90;;;;;;4878703;29;20184;-87
2022/12/15 10:46:20;;;;;;;37.35;19.33;;;1.00;99.90;;;;;;4877016;29;20203;-86
2022/12/15 10:48:56;;;;;;;30.50;20.25;;;0.90;99.90;;;;;;4872647;29;20203;-86
2022/12/15 10:51:48;;;;;;;32.13;19.50;;;0.80;99.90;;;;;;4871806;29;20332;-88
2022/12/15 10:54:17;;;;;;;34.60;18.75;;;0.80;99.90;;;;;;4878301;29;20551;-86
2022/12/15 10:57:08;;;;;;;32.95;18.20;;;0.80;99.90;;;;;;4880374;29;20216;-87
2022/12/15 10:59:36;;;;;;;37.90;18.08;;;0.90;99.90;;;;;;4870463;29;20196;-87
2022/12/15 11:02:17;;;;;;;33.38;18.45;;;1.00;99.90;;;;;;4879065;29;20227;-87
2022/12/15 11:05:16;;;;;;;33.78;19.88;;;1.00;99.90;;;;;;4876339;29;20187;-86
2022/12/15 11:07:48;;;;;;;29.33;18.05;;;1.00;99.90;;;;;;4878129;29;20230;-88
2022/12/15 11:13:11;;;;;;;31.45;19.90;;;1.20;99.90;;;;;;4879940;29;20248;-86
2022/12/15 11:15:38;;;;;;;38.10;17.83;;;1.20;99.90;;;;;;4882987;29;20207;-88
2022/12/15 11:18:23;;;;;;;29.38;17.40;;;1.20;99.90;;;;;;4886236;29;20211;-86
2022/12/15 11:21:24;;;;;;;41.70;19.13;;;1.30;99.90;;;;;;4878291;29;20194;-87
2022/12/15 11:27:35;;;;;;;29.92;17.75;;;2.20;99.90;;;;;;4838767;29;20227;-88
2022/12/15 11:30:13;;;;;;;32.00;18.80;;;3.70;99.90;;;;;;4879417;29;20183;-88
2022/12/15 11:32:47;;;;;;;28.20;19.73;;;5.10;99.90;;;;;;4879242;29;20187;-88
2022/12/15 11:35:32;;;;;;;26.73;17.97;;;6.40;99.90;;;;;;4877486;29;21052;-86
2022/12/15 11:38:20;;;;;;;30.27;19.83;;;7.70;99.90;;;;;;4889341;29;20487;-86
2022/12/15 11:40:47;;;;;;;27.63;17.87;;;8.70;99.90;;;;;;4876979;29;20452;-87
2022/12/15 11:43:52;;;;;;;30.00;19.53;;;9.30;99.90;;;;;;4878304;29;20512;-85
2022/12/15 11:46:22;;;;;;;33.53;19.10;;;9.90;99.90;;;;;;4873382;29;20483;-86
2022/12/15 11:49:11;;;;;;;28.60;19.37;;;10.30;99.90;;;;;;4879393;29;20525;-86
2022/12/15 11:51:48;;;;;;;26.73;18.43;;;10.30;99.90;;;;;;4876740;29;20539;-87
2022/12/15 11:54:34;;;;;;;27.37;20.47;;;10.20;99.90;;;;;;4878877;29;20438;-87
2022/12/15 11:57:37;;;;;;;29.70;19.30;;;10.20;99.90;;;;;;4878246;29;20630;-86
2022/12/15 12:00:08;;;;;;;28.90;20.77;;;10.10;99.90;;;;;;4877399;29;20496;-86
2022/12/15 12:03:02;;;;;;;29.00;20.63;;;10.10;99.90;;;;;;4873140;29;20444;-87
2022/12/15 12:05:28;;;;;;;28.07;20.23;;;10.10;99.90;;;;;;4876422;29;21085;-88
2022/12/15 12:08:29;;;;;;;28.53;22.13;;;10.40;99.90;;;;;;4877218;29;20475;-86
2022/12/15 12:11:06;;;;;;;27.50;20.53;;;10.60;99.90;;;;;;4876980;29;20194;-85
2022/12/15 12:14:14;;;;;;;31.33;23.50;;;10.40;99.90;;;;;;4878019;29;20446;-86
2022/12/15 12:17:31;;;;;;;29.63;21.20;;;10.30;99.90;;;;;;4847739;29;20474;-87
2022/12/15 12:20:07;;;;;;;30.63;20.50;;;10.10;99.90;;;;;;4868097;29;20452;-89
2022/12/15 12:22:53;;;;;;;28.10;20.80;;;10.40;99.90;;;;;;4874022;29;20552;-89
2022/12/15 12:25:24;;;;;;;32.13;21.30;;;10.50;99.90;;;;;;4878271;29;20509;-89
2022/12/15 12:28:21;;;;;;;32.63;21.23;;;10.50;99.90;;;;;;4867302;29;20475;-85
2022/12/15 12:30:47;;;;;;;30.40;22.37;;;10.50;99.90;;;;;;4877729;29;20431;-87
2022/12/15 12:33:29;;;;;;;28.20;21.60;;;10.70;99.90;;;;;;4879550;29;20580;-88
2022/12/15 12:36:14;;;;;;;34.07;21.67;;;11.10;99.90;;;;;;4878130;29;20471;-86
2022/12/15 12:38:49;;;;;;;28.43;21.23;;;11.20;99.90;;;;;;4871562;29;20458;-87
2022/12/15 12:41:55;;;;;;;29.37;21.07;;;11.20;99.90;;;;;;4875580;29;20859;-89
2022/12/15 12:44:33;;;;;;;34.80;22.40;;;11.00;99.90;;;;;;4877548;29;21099;-89
2022/12/15 12:47:13;;;;;;;35.43;23.37;;;10.50;99.90;;;;;;4876248;29;21024;-86
2022/12/15 12:49:46;;;;;;;29.97;22.03;;;10.20;99.90;;;;;;4870644;29;20458;-87
2022/12/15 12:52:23;;;;;;;31.73;23.20;;;10.00;99.90;;;;;;4878550;29;20532;-87
2022/12/15 12:55:10;;;;;;;29.30;22.50;;;10.00;99.90;;;;;;4870769;29;20477;-89
2022/12/15 12:57:43;;;;;;;28.50;22.27;;;10.30;99.90;;;;;;4876781;29;21073;-87
2022/12/15 13:00:14;;;;;;;32.50;21.40;;;10.60;99.90;;;;;;4874924;29;20958;-87
2022/12/15 13:02:52;;;;;;;30.20;22.20;;;10.70;99.90;;;;;;4877763;29;20549;-87
2022/12/15 13:05:32;;;;;;;37.40;24.17;;;10.70;99.90;;;;;;4875363;29;20481;-88
2022/12/15 13:08:09;;;;;;;28.60;21.70;;;10.50;99.90;;;;;;4875772;29;20526;-86
2022/12/15 13:10:46;;;;;;;35.03;25.30;;;10.40;99.90;;;;;;4878063;29;20465;-86
2022/12/15 13:13:30;;;;;;;32.27;23.60;;;10.10;99.90;;;;;;4875518;29;20507;-86
2022/12/15 13:16:20;;;;;;;35.73;24.87;;;10.10;99.90;;;;;;4873484;29;20462;-87
2022/12/15 13:19:01;;;;;;;36.70;23.23;;;10.10;99.90;;;;;;4884871;29;20534;-87
2022/12/15 13:21:43;;;;;;;29.70;22.10;;;10.20;99.90;;;;;;4874981;29;20447;-85
2022/12/15 13:24:34;;;;;;;32.00;22.67;;;10.10;99.90;;;;;;4874270;29;20558;-87
2022/12/15 13:27:11;;;;;;;33.27;24.03;;;10.30;99.90;;;;;;4883675;29;20471;-85
2022/12/15 13:29:58;;;;;;;29.73;22.17;;;10.00;99.90;;;;;;4876704;29;20455;-84
2022/12/15 13:32:46;;;;;;;34.27;23.43;;;9.90;99.90;;;;;;4871133;29;20479;-84
2022/12/15 13:35:12;;;;;;;35.10;26.20;;;10.00;99.90;;;;;;4873280;29;20468;-86
2022/12/15 13:38:07;;;;;;;34.57;24.93;;;9.80;99.90;;;;;;4877398;29;20495;-86
2022/12/15 13:40:36;;;;;;;33.00;22.83;;;9.60;99.90;;;;;;4871572;29;20184;-84
2022/12/15 13:43:27;;;;;;;35.27;24.90;;;9.40;99.90;;;;;;4870295;29;20446;-85
2022/12/15 13:46:08;;;;;;;38.37;24.20;;;9.10;99.90;;;;;;4869702;29;20465;-84
2022/12/15 13:48:38;;;;;;;43.93;23.80;;;9.00;99.90;;;;;;4875453;29;21070;-86
2022/12/15 13:51:31;;;;;;;35.53;22.70;;;8.90;99.90;;;;;;4869194;29;20440;-84
2022/12/15 13:54:14;;;;;;;38.90;24.27;;;9.10;99.90;;;;;;4872971;29;20573;-86
2022/12/15 13:56:47;;;;;;;37.30;24.00;;;9.00;99.90;;;;;;4878465;29;20464;-85
2022/12/15 13:59:24;;;;;;;42.40;23.23;;;8.80;99.90;;;;;;4873587;29;21199;-84
2022/12/15 14:01:51;;;;;;;38.87;23.10;;;8.60;99.90;;;;;;4872346;29;20467;-85
2022/12/15 14:04:18;;;;;;;43.13;25.63;;;8.50;99.90;;;;;;4874110;29;20584;-85
2022/12/15 14:06:56;;;;;;;37.17;23.27;;;8.20;99.90;;;;;;4882090;29;20480;-85
2022/12/15 14:09:29;;;;;;;42.60;24.77;;;8.10;99.90;;;;;;4872588;29;20451;-84
2022/12/15 14:11:56;;;;;;;42.20;24.00;;;8.10;99.90;;;;;;4872559;29;20468;-85
2022/12/15 14:14:29;;;;;;;48.13;25.10;;;8.00;99.90;;;;;;4877501;29;20757;-86
2022/12/15 14:17:00;;;;;;;41.30;24.97;;;7.80;99.90;;;;;;4874941;29;20482;-85
2022/12/15 14:19:41;;;;;;;43.60;25.30;;;7.70;99.90;;;;;;4878791;29;20527;-86
2022/12/15 14:22:25;;;;;;;50.93;25.47;;;7.70;99.90;;;;;;4874645;29;20447;-85
2022/12/15 14:24:59;;;;;;;50.08;28.67;;;7.70;99.90;;;;;;4876320;29;20494;-86
2022/12/15 14:27:27;;;;;;;52.53;26.92;;;7.50;99.90;;;;;;4875531;29;20582;-85
2022/12/15 14:30:18;;;;;;;55.63;27.50;;;7.30;99.90;;;;;;4874710;29;20239;-86
2022/12/15 14:32:46;;;;;;;53.78;29.65;;;7.20;99.90;;;;;;4872391;29;20184;-85
2022/12/15 14:35:39;;;;;;;76.68;30.83;;;7.10;99.90;;;;;;5057974;28;20567;-84
2022/12/15 14:38:16;;;;;;;55.47;30.88;;;6.90;99.90;;;;;;5052598;28;20179;-85
2022/12/15 14:40:43;;;;;;;69.97;33.85;;;6.70;99.90;;;;;;5049608;28;20548;-86
2022/12/15 14:43:20;;;;;;;54.58;31.27;;;6.60;99.90;;;;;;5045307;28;20654;-85
2022/12/15 14:45:50;;;;;;;55.63;29.92;;;6.30;99.90;;;;;;5033695;28;20186;-86
2022/12/15 14:48:31;;;;;;;57.45;31.20;;;6.00;99.90;;;;;;5034226;28;20181;-86
2022/12/15 14:51:02;;;;;;;62.72;35.78;;;5.80;99.90;;;;;;5044842;28;20269;-84
2022/12/15 14:53:33;;;;;;;81.85;39.55;;;5.60;99.90;;;;;;5036166;28;20206;-86
2022/12/15 14:56:21;;;;;;;61.30;37.55;;;5.40;99.90;;;;;;5043583;28;20209;-83
2022/12/15 14:58:58;;;;;;;65.47;36.42;;;5.10;99.90;;;;;;5042968;28;20181;-85
2022/12/15 15:01:48;;;;;;;56.50;32.88;;;4.80;99.90;;;;;;5052415;28;20193;-86
2022/12/15 15:04:31;;;;;;;54.63;33.63;;;4.50;99.90;;;;;;5044843;28;20534;-85
2022/12/15 15:07:18;;;;;;;67.68;34.40;;;4.20;99.90;;;;;;5043294;28;20201;-88
2022/12/15 15:09:45;;;;;;;68.57;34.65;;;3.80;99.90;;;;;;5037366;28;20247;-87
2022/12/15 15:12:25;;;;;;;67.63;32.90;;;3.50;99.90;;;;;;5043551;28;20178;-86
2022/12/15 15:15:03;;;;;;;66.57;32.95;;;3.20;99.90;;;;;;5053225;28;20233;-85
2022/12/15 15:17:51;;;;;;;75.68;35.75;;;3.00;99.90;;;;;;5049765;28;20310;-87
2022/12/15 15:20:20;;;;;;;61.75;32.88;;;2.80;99.90;;;;;;5041873;28;20185;-85
2022/12/15 15:23:03;;;;;;;68.25;33.80;;;2.70;99.90;;;;;;5035901;28;20317;-85
2022/12/15 15:25:48;;;;;;;74.10;37.67;;;2.70;99.90;;;;;;5050352;28;20231;-85
2022/12/15 15:28:26;;;;;;;89.65;40.63;;;2.70;99.90;;;;;;5043890;28;20186;-85
2022/12/15 15:31:19;;;;;;;69.65;33.58;;;2.60;99.90;;;;;;5040681;28;20182;-86
2022/12/15 15:33:45;;;;;;;60.50;33.03;;;2.70;99.90;;;;;;5055122;28;20214;-84